KGLE/GLE METAR and TAF weather

Enter ICAO airport designator
Station Type Date Time Source
KGLE METAR 2020/04/09 10:15 UTC NOAA

KGLE 091015Z AUTO 36003KT 10SM CLR 15/08 A2990 RMK AO2 T01500082 PWINO


Station Type Date Time Source
KGLE Decoded METAR 2020/04/09 10:15 UTC NOAA

Gainesville, Gainesville Municipal Airport, TX, United States (KGLE) 33-39-05N 097-11-49W
Apr 09, 2020 - 06:15 AM EDT / 2020.04.09 1015 UTC
Wind: from the N (360 degrees) at 3 MPH (3 KT):0
Visibility: 10 mile(s):0
Sky conditions: clear
Temperature: 59.0 F (15.0 C)
Dew Point: 46.8 F (8.2 C)
Relative Humidity: 63%
Pressure (altimeter): 29.9 in. Hg (1012 hPa)
ob: KGLE 091015Z AUTO 36003KT 10SM CLR 15/08 A2990 RMK AO2 T01500082 PWINO
cycle: 10

Station Type Date Time Source
KGLE TAF UTC NOAA

Error!

Example: see airport list